sensor_id;sensor_type;location;lat;lon;timestamp;pressure;altitude;pressure_sealevel;temperature;humidity
40117;BME280;25829;50.228;18.936;2024-03-02T00:01:02;97905.97;;;7.61;79.77
40117;BME280;25829;50.228;18.936;2024-03-02T00:04:07;97912.47;;;7.58;79.48
40117;BME280;25829;50.228;18.936;2024-03-02T00:07:08;97905.38;;;7.52;79.51
40117;BME280;25829;50.228;18.936;2024-03-02T00:10:16;97910.22;;;7.48;79.76
40117;BME280;25829;50.228;18.936;2024-03-02T00:13:21;97901.94;;;7.45;79.84
40117;BME280;25829;50.228;18.936;2024-03-02T00:16:32;97912.63;;;7.43;79.50
40117;BME280;25829;50.228;18.936;2024-03-02T00:19:38;97909.59;;;7.40;79.02
40117;BME280;25829;50.228;18.936;2024-03-02T00:22:40;97917.84;;;7.30;79.35
40117;BME280;25829;50.228;18.936;2024-03-02T00:25:46;97921.72;;;7.27;79.64
40117;BME280;25829;50.228;18.936;2024-03-02T00:28:47;97911.78;;;7.23;79.66
40117;BME280;25829;50.228;18.936;2024-03-02T00:31:50;97913.19;;;7.19;79.61
40117;BME280;25829;50.228;18.936;2024-03-02T00:34:51;97914.00;;;7.19;80.07
40117;BME280;25829;50.228;18.936;2024-03-02T00:37:52;97907.94;;;7.19;80.13
40117;BME280;25829;50.228;18.936;2024-03-02T00:40:53;97917.63;;;7.18;79.92
40117;BME280;25829;50.228;18.936;2024-03-02T00:47:01;97910.16;;;7.15;80.41
40117;BME280;25829;50.228;18.936;2024-03-02T00:50:02;97919.66;;;7.16;79.65
40117;BME280;25829;50.228;18.936;2024-03-02T00:53:04;97912.19;;;7.13;79.76
40117;BME280;25829;50.228;18.936;2024-03-02T00:56:09;97911.56;;;7.11;80.11
40117;BME280;25829;50.228;18.936;2024-03-02T00:59:11;97908.16;;;7.11;79.55
40117;BME280;25829;50.228;18.936;2024-03-02T01:02:12;97909.97;;;7.10;79.75
40117;BME280;25829;50.228;18.936;2024-03-02T01:05:13;97909.34;;;7.08;79.40
40117;BME280;25829;50.228;18.936;2024-03-02T01:08:13;97913.38;;;7.04;79.17
40117;BME280;25829;50.228;18.936;2024-03-02T01:11:15;97914.56;;;7.01;79.60
40117;BME280;25829;50.228;18.936;2024-03-02T01:14:16;97913.16;;;6.99;79.17
40117;BME280;25829;50.228;18.936;2024-03-02T01:17:16;97905.88;;;6.94;78.88
40117;BME280;25829;50.228;18.936;2024-03-02T01:20:17;97900.22;;;6.91;79.16
40117;BME280;25829;50.228;18.936;2024-03-02T01:23:19;97901.25;;;6.90;79.51
40117;BME280;25829;50.228;18.936;2024-03-02T01:26:20;97893.75;;;6.87;79.45
40117;BME280;25829;50.228;18.936;2024-03-02T01:29:21;97891.91;;;6.81;78.90
40117;BME280;25829;50.228;18.936;2024-03-02T01:32:21;97884.03;;;6.74;79.71
40117;BME280;25829;50.228;18.936;2024-03-02T01:35:22;97885.06;;;6.73;79.45
40117;BME280;25829;50.228;18.936;2024-03-02T01:38:23;97879.19;;;6.71;79.48
40117;BME280;25829;50.228;18.936;2024-03-02T01:41:23;97877.78;;;6.68;79.58
40117;BME280;25829;50.228;18.936;2024-03-02T01:44:24;97878.59;;;6.69;79.54
40117;BME280;25829;50.228;18.936;2024-03-02T01:47:25;97882.19;;;6.68;79.34
40117;BME280;25829;50.228;18.936;2024-03-02T01:50:27;97874.34;;;6.61;79.64
40117;BME280;25829;50.228;18.936;2024-03-02T01:53:28;97870.69;;;6.62;79.64
40117;BME280;25829;50.228;18.936;2024-03-02T01:56:29;97870.31;;;6.65;79.86
40117;BME280;25829;50.228;18.936;2024-03-02T01:59:30;97863.66;;;6.69;79.82
40117;BME280;25829;50.228;18.936;2024-03-02T02:02:31;97857.22;;;6.72;79.68
40117;BME280;25829;50.228;18.936;2024-03-02T02:05:33;97855.03;;;6.75;79.86
40117;BME280;25829;50.228;18.936;2024-03-02T02:08:36;97863.28;;;6.79;79.66
40117;BME280;25829;50.228;18.936;2024-03-02T02:11:37;97861.09;;;6.83;79.97
40117;BME280;25829;50.228;18.936;2024-03-02T02:14:38;97851.41;;;6.83;79.61
40117;BME280;25829;50.228;18.936;2024-03-02T02:17:40;97855.63;;;6.84;79.15
40117;BME280;25829;50.228;18.936;2024-03-02T02:20:41;97863.50;;;6.84;79.72
40117;BME280;25829;50.228;18.936;2024-03-02T02:23:41;97855.63;;;6.84;79.57
40117;BME280;25829;50.228;18.936;2024-03-02T02:26:46;97852.03;;;6.85;79.28
40117;BME280;25829;50.228;18.936;2024-03-02T02:29:47;97853.22;;;6.83;79.11
40117;BME280;25829;50.228;18.936;2024-03-02T02:32:48;97850.59;;;6.83;79.34
40117;BME280;25829;50.228;18.936;2024-03-02T02:35:49;97854.41;;;6.80;79.24
40117;BME280;25829;50.228;18.936;2024-03-02T02:38:50;97849.56;;;6.77;79.61
40117;BME280;25829;50.228;18.936;2024-03-02T02:41:51;97846.34;;;6.75;79.53
40117;BME280;25829;50.228;18.936;2024-03-02T02:44:52;97848.34;;;6.73;79.75
40117;BME280;25829;50.228;18.936;2024-03-02T02:47:52;97846.75;;;6.72;79.55
40117;BME280;25829;50.228;18.936;2024-03-02T02:50:53;97851.19;;;6.71;79.62
40117;BME280;25829;50.228;18.936;2024-03-02T02:53:54;97848.31;;;6.66;79.69
40117;BME280;25829;50.228;18.936;2024-03-02T02:56:54;97845.09;;;6.64;79.44
40117;BME280;25829;50.228;18.936;2024-03-02T02:59:55;97850.53;;;6.63;79.46
40117;BME280;25829;50.228;18.936;2024-03-02T03:02:56;97855.16;;;6.61;79.02
40117;BME280;25829;50.228;18.936;2024-03-02T03:05:56;97854.16;;;6.55;79.31
40117;BME280;25829;50.228;18.936;2024-03-02T03:08:57;97856.34;;;6.51;79.13
40117;BME280;25829;50.228;18.936;2024-03-02T03:11:58;97857.75;;;6.47;79.73
40117;BME280;25829;50.228;18.936;2024-03-02T03:14:59;97865.19;;;6.44;79.59
40117;BME280;25829;50.228;18.936;2024-03-02T03:18:00;97864.38;;;6.43;79.72
40117;BME280;25829;50.228;18.936;2024-03-02T03:21:01;97864.78;;;6.40;79.41
40117;BME280;25829;50.228;18.936;2024-03-02T03:24:02;97859.53;;;6.40;79.69
40117;BME280;25829;50.228;18.936;2024-03-02T03:27:02;97861.31;;;6.40;79.36
40117;BME280;25829;50.228;18.936;2024-03-02T03:30:03;97864.78;;;6.40;79.34
40117;BME280;25829;50.228;18.936;2024-03-02T03:33:05;97860.34;;;6.41;79.12
40117;BME280;25829;50.228;18.936;2024-03-02T03:36:09;97864.34;;;6.37;79.35
40117;BME280;25829;50.228;18.936;2024-03-02T03:39:10;97871.59;;;6.35;79.46
40117;BME280;25829;50.228;18.936;2024-03-02T03:42:11;97863.50;;;6.29;79.10
40117;BME280;25829;50.228;18.936;2024-03-02T03:45:12;97858.69;;;6.26;79.40
40117;BME280;25829;50.228;18.936;2024-03-02T03:48:12;97864.72;;;6.27;79.72
40117;BME280;25829;50.228;18.936;2024-03-02T03:51:13;97872.38;;;6.28;79.26
40117;BME280;25829;50.228;18.936;2024-03-02T03:54:14;97870.56;;;6.29;80.19
40117;BME280;25829;50.228;18.936;2024-03-02T03:57:14;97867.75;;;6.30;79.77
40117;BME280;25829;50.228;18.936;2024-03-02T04:00:15;97857.44;;;6.29;78.93
40117;BME280;25829;50.228;18.936;2024-03-02T04:03:16;97853.44;;;6.26;80.07
40117;BME280;25829;50.228;18.936;2024-03-02T04:06:17;97849.59;;;6.29;79.91
40117;BME280;25829;50.228;18.936;2024-03-02T04:09:17;97853.44;;;6.33;80.11
40117;BME280;25829;50.228;18.936;2024-03-02T04:12:18;97847.81;;;6.36;79.84
40117;BME280;25829;50.228;18.936;2024-03-02T04:15:19;97842.56;;;6.36;79.91
40117;BME280;25829;50.228;18.936;2024-03-02T04:18:20;97844.38;;;6.36;80.16
40117;BME280;25829;50.228;18.936;2024-03-02T04:21:21;97850.81;;;6.33;79.70
40117;BME280;25829;50.228;18.936;2024-03-02T04:24:21;97849.22;;;6.32;80.25
40117;BME280;25829;50.228;18.936;2024-03-02T04:27:22;97863.75;;;6.35;79.96
40117;BME280;25829;50.228;18.936;2024-03-02T04:30:23;97858.25;;;6.29;79.02
40117;BME280;25829;50.228;18.936;2024-03-02T04:33:24;97866.53;;;6.26;79.46
40117;BME280;25829;50.228;18.936;2024-03-02T04:36:24;97866.13;;;6.23;79.34
40117;BME280;25829;50.228;18.936;2024-03-02T04:39:25;97862.88;;;6.21;79.50
40117;BME280;25829;50.228;18.936;2024-03-02T04:42:26;97863.88;;;6.20;79.45
40117;BME280;25829;50.228;18.936;2024-03-02T04:45:27;97858.22;;;6.16;79.66
40117;BME280;25829;50.228;18.936;2024-03-02T04:48:28;97852.97;;;6.16;79.54
40117;BME280;25829;50.228;18.936;2024-03-02T04:51:29;97854.34;;;6.12;79.37
40117;BME280;25829;50.228;18.936;2024-03-02T04:54:30;97859.59;;;6.12;80.16
40117;BME280;25829;50.228;18.936;2024-03-02T04:57:30;97852.34;;;6.14;79.89
40117;BME280;25829;50.228;18.936;2024-03-02T05:00:31;97862.81;;;6.14;79.47
40117;BME280;25829;50.228;18.936;2024-03-02T05:03:32;97858.59;;;6.13;79.59
40117;BME280;25829;50.228;18.936;2024-03-02T05:06:35;97870.25;;;6.11;79.16
40117;BME280;25829;50.228;18.936;2024-03-02T05:16:06;97882.94;;;6.07;79.40
40117;BME280;25829;50.228;18.936;2024-03-02T05:19:08;97884.13;;;6.04;79.32
40117;BME280;25829;50.228;18.936;2024-03-02T05:22:08;97890.53;;;6.02;79.23
40117;BME280;25829;50.228;18.936;2024-03-02T05:25:09;97882.69;;;6.02;78.90
40117;BME280;25829;50.228;18.936;2024-03-02T05:28:11;97887.31;;;6.00;79.44
40117;BME280;25829;50.228;18.936;2024-03-02T05:31:15;97894.56;;;5.98;79.29
40117;BME280;25829;50.228;18.936;2024-03-02T05:34:16;97897.16;;;5.98;78.86
40117;BME280;25829;50.228;18.936;2024-03-02T05:37:17;97903.63;;;5.95;79.23
40117;BME280;25829;50.228;18.936;2024-03-02T05:40:18;97905.59;;;5.93;79.02
40117;BME280;25829;50.228;18.936;2024-03-02T05:43:18;97901.56;;;5.91;79.57
40117;BME280;25829;50.228;18.936;2024-03-02T05:46:20;97904.38;;;5.89;79.57
40117;BME280;25829;50.228;18.936;2024-03-02T05:49:22;97907.97;;;5.88;79.17
40117;BME280;25829;50.228;18.936;2024-03-02T05:52:23;97906.34;;;5.87;79.53
40117;BME280;25829;50.228;18.936;2024-03-02T05:55:24;97902.91;;;5.87;78.74
40117;BME280;25829;50.228;18.936;2024-03-02T05:58:24;97908.81;;;5.89;79.51
40117;BME280;25829;50.228;18.936;2024-03-02T06:01:45;97910.41;;;5.90;79.81
40117;BME280;25829;50.228;18.936;2024-03-02T06:04:46;97917.25;;;5.91;79.60
40117;BME280;25829;50.228;18.936;2024-03-02T06:07:47;97916.72;;;5.95;78.99
40117;BME280;25829;50.228;18.936;2024-03-02T06:10:48;97922.53;;;5.97;79.63
40117;BME280;25829;50.228;18.936;2024-03-02T06:13:49;97921.38;;;6.00;79.65
40117;BME280;25829;50.228;18.936;2024-03-02T06:16:50;97925.41;;;6.02;79.66
40117;BME280;25829;50.228;18.936;2024-03-02T06:19:50;97919.78;;;6.05;79.94
40117;BME280;25829;50.228;18.936;2024-03-02T06:22:51;97924.63;;;6.08;79.89
40117;BME280;25829;50.228;18.936;2024-03-02T06:25:52;97928.31;;;6.14;80.23
40117;BME280;25829;50.228;18.936;2024-03-02T06:28:52;97931.59;;;6.23;79.45
40117;BME280;25829;50.228;18.936;2024-03-02T06:31:53;97934.44;;;6.28;79.52
40117;BME280;25829;50.228;18.936;2024-03-02T06:34:54;97924.34;;;6.25;79.61
40117;BME280;25829;50.228;18.936;2024-03-02T06:37:55;97931.81;;;6.28;79.65
40117;BME280;25829;50.228;18.936;2024-03-02T06:40:55;97929.41;;;6.33;79.78
40117;BME280;25829;50.228;18.936;2024-03-02T06:43:56;97924.41;;;6.38;79.89
40117;BME280;25829;50.228;18.936;2024-03-02T06:47:00;97922.84;;;6.44;79.57
40117;BME280;25829;50.228;18.936;2024-03-02T06:50:00;97921.44;;;6.48;80.16
40117;BME280;25829;50.228;18.936;2024-03-02T06:53:01;97920.84;;;6.52;80.40
40117;BME280;25829;50.228;18.936;2024-03-02T06:56:04;97926.13;;;6.59;79.92
40117;BME280;25829;50.228;18.936;2024-03-02T06:59:05;97929.78;;;6.65;79.92
40117;BME280;25829;50.228;18.936;2024-03-02T07:02:06;97927.38;;;6.70;79.91
40117;BME280;25829;50.228;18.936;2024-03-02T07:05:08;97927.19;;;6.71;79.80
40117;BME280;25829;50.228;18.936;2024-03-02T07:08:10;97936.06;;;6.77;80.47
40117;BME280;25829;50.228;18.936;2024-03-02T07:11:10;97931.06;;;6.82;79.68
40117;BME280;25829;50.228;18.936;2024-03-02T07:14:11;97925.00;;;6.82;80.29
40117;BME280;25829;50.228;18.936;2024-03-02T07:17:12;97929.84;;;6.85;80.44
40117;BME280;25829;50.228;18.936;2024-03-02T07:20:12;97933.28;;;6.92;80.47
40117;BME280;25829;50.228;18.936;2024-03-02T07:23:13;97934.13;;;6.99;80.21
40117;BME280;25829;50.228;18.936;2024-03-02T07:26:14;97936.19;;;7.03;80.56
40117;BME280;25829;50.228;18.936;2024-03-02T07:29:15;97946.06;;;7.08;80.57
40117;BME280;25829;50.228;18.936;2024-03-02T07:32:16;97942.44;;;7.09;80.11
40117;BME280;25829;50.228;18.936;2024-03-02T07:35:16;97939.03;;;7.15;80.60
40117;BME280;25829;50.228;18.936;2024-03-02T07:38:18;97946.72;;;7.23;80.70
40117;BME280;25829;50.228;18.936;2024-03-02T07:41:19;97947.94;;;7.27;80.65
40117;BME280;25829;50.228;18.936;2024-03-02T07:44:20;97943.09;;;7.31;80.40
40117;BME280;25829;50.228;18.936;2024-03-02T07:47:20;97952.41;;;7.34;80.25
40117;BME280;25829;50.228;18.936;2024-03-02T07:50:21;97956.66;;;7.41;80.63
40117;BME280;25829;50.228;18.936;2024-03-02T07:53:22;97959.88;;;7.43;80.28
40117;BME280;25829;50.228;18.936;2024-03-02T07:56:23;97956.84;;;7.40;79.89
40117;BME280;25829;50.228;18.936;2024-03-02T07:59:26;97966.75;;;7.44;80.35
40117;BME280;25829;50.228;18.936;2024-03-02T08:06:34;97959.28;;;7.55;79.90
40117;BME280;25829;50.228;18.936;2024-03-02T08:09:34;97966.97;;;7.63;80.21
40117;BME280;25829;50.228;18.936;2024-03-02T08:12:35;97964.13;;;7.71;79.68
40117;BME280;25829;50.228;18.936;2024-03-02T08:15:36;97969.22;;;7.72;79.60
40117;BME280;25829;50.228;18.936;2024-03-02T08:18:37;97964.97;;;7.78;79.69
40117;BME280;25829;50.228;18.936;2024-03-02T08:21:37;97965.78;;;7.85;79.45
40117;BME280;25829;50.228;18.936;2024-03-02T08:24:38;97956.31;;;7.97;79.71
40117;BME280;25829;50.228;18.936;2024-03-02T08:27:40;97966.81;;;8.11;79.43
40117;BME280;25829;50.228;18.936;2024-03-02T08:30:40;97955.28;;;8.18;79.03
40117;BME280;25829;50.228;18.936;2024-03-02T08:33:41;97958.28;;;8.22;79.04
40117;BME280;25829;50.228;18.936;2024-03-02T08:36:42;97960.69;;;8.30;79.31
40117;BME280;25829;50.228;18.936;2024-03-02T08:39:45;97958.69;;;8.39;78.95
40117;BME280;25829;50.228;18.936;2024-03-02T08:42:45;97961.88;;;8.54;79.25
40117;BME280;25829;50.228;18.936;2024-03-02T08:45:47;97969.31;;;8.64;78.50
40117;BME280;25829;50.228;18.936;2024-03-02T08:48:49;97971.53;;;8.74;78.43
40117;BME280;25829;50.228;18.936;2024-03-02T08:51:50;97975.34;;;8.84;78.10
40117;BME280;25829;50.228;18.936;2024-03-02T08:54:55;97970.81;;;8.98;78.14
40117;BME280;25829;50.228;18.936;2024-03-02T08:57:56;97979.88;;;9.09;77.48
40117;BME280;25829;50.228;18.936;2024-03-02T09:00:57;97982.25;;;9.17;77.16
40117;BME280;25829;50.228;18.936;2024-03-02T09:03:57;97977.56;;;9.26;76.65
40117;BME280;25829;50.228;18.936;2024-03-02T09:06:58;97982.00;;;9.32;75.99
40117;BME280;25829;50.228;18.936;2024-03-02T09:09:59;97981.41;;;9.30;75.03
40117;BME280;25829;50.228;18.936;2024-03-02T09:13:00;97985.44;;;9.32;75.19
40117;BME280;25829;50.228;18.936;2024-03-02T09:16:01;97978.56;;;9.31;74.93
40117;BME280;25829;50.228;18.936;2024-03-02T09:19:01;97979.38;;;9.32;75.09
40117;BME280;25829;50.228;18.936;2024-03-02T09:22:02;97977.53;;;9.39;75.23
40117;BME280;25829;50.228;18.936;2024-03-02T09:25:06;97983.34;;;9.48;75.25
40117;BME280;25829;50.228;18.936;2024-03-02T09:28:09;97982.69;;;9.59;75.36
40117;BME280;25829;50.228;18.936;2024-03-02T09:31:10;97982.81;;;9.71;75.06
40117;BME280;25829;50.228;18.936;2024-03-02T09:34:12;97978.28;;;9.78;74.74
40117;BME280;25829;50.228;18.936;2024-03-02T09:37:14;97990.63;;;9.84;73.39
40117;BME280;25829;50.228;18.936;2024-03-02T09:40:15;97999.31;;;9.84;73.45
40117;BME280;25829;50.228;18.936;2024-03-02T09:43:16;97993.63;;;9.87;73.64
40117;BME280;25829;50.228;18.936;2024-03-02T09:46:17;97991.00;;;9.87;73.21
40117;BME280;25829;50.228;18.936;2024-03-02T09:49:19;97993.03;;;9.85;72.45
40117;BME280;25829;50.228;18.936;2024-03-02T09:52:20;98003.56;;;9.85;73.03
40117;BME280;25829;50.228;18.936;2024-03-02T09:55:20;97991.78;;;9.88;72.83
40117;BME280;25829;50.228;18.936;2024-03-02T09:58:21;97997.28;;;9.86;73.12
40117;BME280;25829;50.228;18.936;2024-03-02T10:01:22;97994.81;;;9.92;73.00
40117;BME280;25829;50.228;18.936;2024-03-02T10:04:25;97995.19;;;9.95;73.29
40117;BME280;25829;50.228;18.936;2024-03-02T10:07:27;97994.38;;;9.95;72.82
40117;BME280;25829;50.228;18.936;2024-03-02T10:10:38;97998.47;;;9.91;72.34
40117;BME280;25829;50.228;18.936;2024-03-02T10:13:43;97991.78;;;9.88;73.13
40117;BME280;25829;50.228;18.936;2024-03-02T10:16:44;97992.56;;;9.95;73.13
40117;BME280;25829;50.228;18.936;2024-03-02T10:19:45;97989.88;;;10.02;72.89
40117;BME280;25829;50.228;18.936;2024-03-02T10:22:46;97988.22;;;10.07;72.87
40117;BME280;25829;50.228;18.936;2024-03-02T10:25:47;97989.81;;;10.08;72.54
40117;BME280;25829;50.228;18.936;2024-03-02T10:28:47;97992.44;;;10.08;72.38
40117;BME280;25829;50.228;18.936;2024-03-02T10:31:48;97988.59;;;10.11;71.92
40117;BME280;25829;50.228;18.936;2024-03-02T10:34:50;97988.50;;;10.18;72.45
40117;BME280;25829;50.228;18.936;2024-03-02T10:37:52;97995.78;;;10.22;71.92
40117;BME280;25829;50.228;18.936;2024-03-02T10:40:53;98004.88;;;10.26;71.70
40117;BME280;25829;50.228;18.936;2024-03-02T10:43:56;98001.63;;;10.24;71.15
40117;BME280;25829;50.228;18.936;2024-03-02T10:47:03;98005.78;;;10.14;71.33
40117;BME280;25829;50.228;18.936;2024-03-02T10:50:05;98005.41;;;10.10;71.33
40117;BME280;25829;50.228;18.936;2024-03-02T10:53:08;98008.03;;;10.10;71.65
40117;BME280;25829;50.228;18.936;2024-03-02T10:56:10;98011.47;;;10.10;71.59
40117;BME280;25829;50.228;18.936;2024-03-02T10:59:28;98008.09;;;10.03;70.70
40117;BME280;25829;50.228;18.936;2024-03-02T11:02:34;98007.81;;;9.86;70.37
40117;BME280;25829;50.228;18.936;2024-03-02T11:05:41;98020.31;;;9.66;70.71
40117;BME280;25829;50.228;18.936;2024-03-02T11:08:45;98010.81;;;9.58;70.89
40117;BME280;25829;50.228;18.936;2024-03-02T11:15:00;98009.81;;;9.59;72.30
40117;BME280;25829;50.228;18.936;2024-03-02T11:18:02;98011.22;;;9.62;72.32
40117;BME280;25829;50.228;18.936;2024-03-02T11:21:06;98011.59;;;9.66;72.39
40117;BME280;25829;50.228;18.936;2024-03-02T11:27:59;97998.81;;;9.69;72.36
40117;BME280;25829;50.228;18.936;2024-03-02T11:31:00;97988.88;;;9.71;72.11
40117;BME280;25829;50.228;18.936;2024-03-02T11:34:18;97986.25;;;9.71;71.97
40117;BME280;25829;50.228;18.936;2024-03-02T11:37:29;97995.59;;;9.67;72.66
40117;BME280;25829;50.228;18.936;2024-03-02T11:40:30;97988.03;;;9.77;73.42
40117;BME280;25829;50.228;18.936;2024-03-02T11:43:31;97985.28;;;9.91;73.58
40117;BME280;25829;50.228;18.936;2024-03-02T11:46:33;97973.81;;;10.03;73.39
40117;BME280;25829;50.228;18.936;2024-03-02T11:49:39;97980.44;;;10.13;72.28
40117;BME280;25829;50.228;18.936;2024-03-02T11:52:41;97986.31;;;10.15;72.68
40117;BME280;25829;50.228;18.936;2024-03-02T11:55:42;97980.75;;;10.23;72.86
40117;BME280;25829;50.228;18.936;2024-03-02T11:58:46;97973.47;;;10.25;72.17
40117;BME280;25829;50.228;18.936;2024-03-02T12:01:48;97977.09;;;10.24;72.05
40117;BME280;25829;50.228;18.936;2024-03-02T12:04:49;97977.09;;;10.24;72.17
40117;BME280;25829;50.228;18.936;2024-03-02T12:07:56;97979.31;;;10.27;72.53
40117;BME280;25829;50.228;18.936;2024-03-02T12:11:01;97976.16;;;10.37;72.90
40117;BME280;25829;50.228;18.936;2024-03-02T12:14:02;97975.75;;;10.40;71.98
40117;BME280;25829;50.228;18.936;2024-03-02T12:17:05;97975.38;;;10.36;71.54
40117;BME280;25829;50.228;18.936;2024-03-02T12:20:06;97983.91;;;10.31;71.31
40117;BME280;25829;50.228;18.936;2024-03-02T12:23:07;97974.41;;;10.30;71.86
40117;BME280;25829;50.228;18.936;2024-03-02T12:26:08;97973.53;;;10.37;72.05
40117;BME280;25829;50.228;18.936;2024-03-02T12:29:09;97972.13;;;10.34;72.07
40117;BME280;25829;50.228;18.936;2024-03-02T12:32:10;97968.25;;;10.37;72.89
40117;BME280;25829;50.228;18.936;2024-03-02T12:35:11;97970.53;;;10.33;72.93
40117;BME280;25829;50.228;18.936;2024-03-02T12:38:15;97969.72;;;10.32;73.31
40117;BME280;25829;50.228;18.936;2024-03-02T12:41:16;97981.28;;;10.31;73.39
40117;BME280;25829;50.228;18.936;2024-03-02T12:44:17;97977.63;;;10.32;73.49
40117;BME280;25829;50.228;18.936;2024-03-02T12:47:18;97973.38;;;10.31;73.66
40117;BME280;25829;50.228;18.936;2024-03-02T12:50:20;97979.84;;;10.35;74.06
40117;BME280;25829;50.228;18.936;2024-03-02T12:53:21;97969.50;;;10.34;74.26
40117;BME280;25829;50.228;18.936;2024-03-02T12:56:23;97970.47;;;10.40;74.68
40117;BME280;25829;50.228;18.936;2024-03-02T12:59:24;97960.41;;;10.48;75.03
40117;BME280;25829;50.228;18.936;2024-03-02T13:02:30;97968.28;;;10.55;74.77
40117;BME280;25829;50.228;18.936;2024-03-02T13:05:32;97969.59;;;10.46;74.41
40117;BME280;25829;50.228;18.936;2024-03-02T13:08:36;97970.03;;;10.43;74.87
40117;BME280;25829;50.228;18.936;2024-03-02T13:11:36;97961.69;;;10.46;75.26
40117;BME280;25829;50.228;18.936;2024-03-02T13:14:38;97964.16;;;10.41;75.43
40117;BME280;25829;50.228;18.936;2024-03-02T13:17:39;97965.41;;;10.38;75.35
40117;BME280;25829;50.228;18.936;2024-03-02T13:20:39;97961.75;;;10.39;75.63
40117;BME280;25829;50.228;18.936;2024-03-02T13:23:40;97960.72;;;10.40;75.56
40117;BME280;25829;50.228;18.936;2024-03-02T13:26:41;97960.72;;;10.40;75.79
40117;BME280;25829;50.228;18.936;2024-03-02T13:29:42;97953.41;;;10.42;75.96
40117;BME280;25829;50.228;18.936;2024-03-02T13:32:43;97951.34;;;10.44;76.18
40117;BME280;25829;50.228;18.936;2024-03-02T13:35:44;97953.13;;;10.50;76.27
40117;BME280;25829;50.228;18.936;2024-03-02T13:38:44;97956.13;;;10.54;76.72
40117;BME280;25829;50.228;18.936;2024-03-02T13:41:45;97956.72;;;10.56;76.63
40117;BME280;25829;50.228;18.936;2024-03-02T13:44:52;97952.00;;;10.58;76.72
40117;BME280;25829;50.228;18.936;2024-03-02T13:47:53;97953.16;;;10.62;77.00
40117;BME280;25829;50.228;18.936;2024-03-02T13:50:54;97952.16;;;10.63;76.97
40117;BME280;25829;50.228;18.936;2024-03-02T13:53:55;97957.28;;;10.58;76.56
40117;BME280;25829;50.228;18.936;2024-03-02T13:56:56;97957.34;;;10.51;76.80
40117;BME280;25829;50.228;18.936;2024-03-02T13:59:59;97953.31;;;10.49;77.26
40117;BME280;25829;50.228;18.936;2024-03-02T14:02:59;97953.91;;;10.51;77.56
40117;BME280;25829;50.228;18.936;2024-03-02T14:06:01;97950.97;;;10.59;77.59
40117;BME280;25829;50.228;18.936;2024-03-02T14:09:01;97954.75;;;10.70;78.39
40117;BME280;25829;50.228;18.936;2024-03-02T14:12:03;97950.34;;;10.82;78.15
40117;BME280;25829;50.228;18.936;2024-03-02T14:15:04;97946.47;;;10.85;77.66
40117;BME280;25829;50.228;18.936;2024-03-02T14:18:06;97943.75;;;10.91;77.78
40117;BME280;25829;50.228;18.936;2024-03-02T14:21:07;97947.75;;;10.94;77.20
40117;BME280;25829;50.228;18.936;2024-03-02T14:24:08;97948.78;;;10.93;77.11
40117;BME280;25829;50.228;18.936;2024-03-02T14:27:09;97943.88;;;10.96;77.63
40117;BME280;25829;50.228;18.936;2024-03-02T14:30:11;97946.06;;;10.99;77.60
40117;BME280;25829;50.228;18.936;2024-03-02T14:33:12;97943.66;;;10.98;77.56
40117;BME280;25829;50.228;18.936;2024-03-02T14:36:14;97935.03;;;10.91;77.59
40117;BME280;25829;50.228;18.936;2024-03-02T14:39:14;97939.84;;;10.94;78.03
40117;BME280;25829;50.228;18.936;2024-03-02T14:42:15;97934.72;;;10.99;78.09
40117;BME280;25829;50.228;18.936;2024-03-02T14:45:16;97934.84;;;11.04;78.15
40117;BME280;25829;50.228;18.936;2024-03-02T14:48:17;97928.31;;;11.06;77.97
40117;BME280;25829;50.228;18.936;2024-03-02T14:51:18;97933.94;;;11.10;77.63
40117;BME280;25829;50.228;18.936;2024-03-02T14:54:18;97937.75;;;11.14;77.72
40117;BME280;25829;50.228;18.936;2024-03-02T14:57:19;97926.38;;;11.14;77.41
40117;BME280;25829;50.228;18.936;2024-03-02T15:00:20;97929.63;;;11.16;77.57
40117;BME280;25829;50.228;18.936;2024-03-02T15:03:21;97923.53;;;11.15;77.50
40117;BME280;25829;50.228;18.936;2024-03-02T15:06:21;97933.50;;;11.13;77.46
40117;BME280;25829;50.228;18.936;2024-03-02T15:09:22;97933.16;;;11.10;77.05
40117;BME280;25829;50.228;18.936;2024-03-02T15:12:23;97933.94;;;11.10;77.29
40117;BME280;25829;50.228;18.936;2024-03-02T15:15:24;97932.91;;;11.11;77.42
40117;BME280;25829;50.228;18.936;2024-03-02T15:18:26;97928.09;;;11.08;76.86
40117;BME280;25829;50.228;18.936;2024-03-02T15:21:27;97924.25;;;10.92;77.00
40117;BME280;25829;50.228;18.936;2024-03-02T15:24:28;97938.63;;;10.78;77.40
40117;BME280;25829;50.228;18.936;2024-03-02T15:27:29;97936.63;;;10.73;77.79
40117;BME280;25829;50.228;18.936;2024-03-02T15:30:29;97937.88;;;10.71;77.98
40117;BME280;25829;50.228;18.936;2024-03-02T15:33:30;97939.47;;;10.72;78.17
40117;BME280;25829;50.228;18.936;2024-03-02T15:36:31;97936.44;;;10.75;78.19
40117;BME280;25829;50.228;18.936;2024-03-02T15:39:32;97941.03;;;10.79;78.20
40117;BME280;25829;50.228;18.936;2024-03-02T15:42:33;97936.13;;;10.83;77.98
40117;BME280;25829;50.228;18.936;2024-03-02T15:45:34;97941.41;;;10.83;77.75
40117;BME280;25829;50.228;18.936;2024-03-02T15:48:35;97945.88;;;10.82;77.53
40117;BME280;25829;50.228;18.936;2024-03-02T15:51:36;97942.88;;;10.79;77.34
40117;BME280;25829;50.228;18.936;2024-03-02T15:54:40;97946.53;;;10.78;77.22
40117;BME280;25829;50.228;18.936;2024-03-02T15:57:41;97944.94;;;10.77;77.37
40117;BME280;25829;50.228;18.936;2024-03-02T16:00:42;97956.28;;;10.77;77.12
40117;BME280;25829;50.228;18.936;2024-03-02T16:03:43;97956.50;;;10.76;76.85
40117;BME280;25829;50.228;18.936;2024-03-02T16:06:43;97949.63;;;10.75;76.86
40117;BME280;25829;50.228;18.936;2024-03-02T16:09:44;97944.53;;;10.73;76.87
40117;BME280;25829;50.228;18.936;2024-03-02T16:12:45;97954.28;;;10.73;77.06
40117;BME280;25829;50.228;18.936;2024-03-02T16:15:47;97948.44;;;10.71;77.43
40117;BME280;25829;50.228;18.936;2024-03-02T16:18:48;97940.94;;;10.68;77.16